sensor_id;sensor_type;location;lat;lon;timestamp;temperature;humidity
24260;DHT22;12384;48.112;18.418;2023-01-24T00:01:23;5.70;75.50
24260;DHT22;12384;48.112;18.418;2023-01-24T00:03:51;5.70;75.30
24260;DHT22;12384;48.112;18.418;2023-01-24T00:06:20;5.60;75.10
24260;DHT22;12384;48.112;18.418;2023-01-24T00:08:48;5.60;75.00
24260;DHT22;12384;48.112;18.418;2023-01-24T00:11:18;5.60;75.10
24260;DHT22;12384;48.112;18.418;2023-01-24T00:13:46;5.60;75.10
24260;DHT22;12384;48.112;18.418;2023-01-24T00:16:16;5.60;75.30
24260;DHT22;12384;48.112;18.418;2023-01-24T00:18:46;5.60;75.40
24260;DHT22;12384;48.112;18.418;2023-01-24T00:21:16;5.50;75.40
24260;DHT22;12384;48.112;18.418;2023-01-24T00:23:47;5.50;75.50
24260;DHT22;12384;48.112;18.418;2023-01-24T00:26:18;5.50;75.40
24260;DHT22;12384;48.112;18.418;2023-01-24T00:28:48;5.50;75.50
24260;DHT22;12384;48.112;18.418;2023-01-24T00:31:16;5.50;75.50
24260;DHT22;12384;48.112;18.418;2023-01-24T00:33:45;5.50;75.70
24260;DHT22;12384;48.112;18.418;2023-01-24T00:36:13;5.40;75.60
24260;DHT22;12384;48.112;18.418;2023-01-24T00:38:42;5.40;75.70
24260;DHT22;12384;48.112;18.418;2023-01-24T00:41:10;5.40;75.80
24260;DHT22;12384;48.112;18.418;2023-01-24T00:43:40;5.40;76.00
24260;DHT22;12384;48.112;18.418;2023-01-24T00:46:09;5.40;76.10
24260;DHT22;12384;48.112;18.418;2023-01-24T00:48:38;5.40;76.30
24260;DHT22;12384;48.112;18.418;2023-01-24T00:51:06;5.40;76.50
24260;DHT22;12384;48.112;18.418;2023-01-24T00:53:35;5.40;76.70
24260;DHT22;12384;48.112;18.418;2023-01-24T00:56:04;5.40;76.80
24260;DHT22;12384;48.112;18.418;2023-01-24T00:58:32;5.40;76.90
24260;DHT22;12384;48.112;18.418;2023-01-24T01:01:03;5.40;77.10
24260;DHT22;12384;48.112;18.418;2023-01-24T01:03:31;5.40;77.20
24260;DHT22;12384;48.112;18.418;2023-01-24T01:06:01;5.40;77.30
24260;DHT22;12384;48.112;18.418;2023-01-24T01:08:30;5.40;77.40
24260;DHT22;12384;48.112;18.418;2023-01-24T01:10:59;5.40;77.40
24260;DHT22;12384;48.112;18.418;2023-01-24T01:13:28;5.40;77.50
24260;DHT22;12384;48.112;18.418;2023-01-24T01:16:03;5.40;77.60
24260;DHT22;12384;48.112;18.418;2023-01-24T01:18:32;5.40;77.60
24260;DHT22;12384;48.112;18.418;2023-01-24T01:21:01;5.40;78.40
24260;DHT22;12384;48.112;18.418;2023-01-24T01:23:30;5.30;77.50
24260;DHT22;12384;48.112;18.418;2023-01-24T01:25:59;5.30;77.50
24260;DHT22;12384;48.112;18.418;2023-01-24T01:28:29;5.30;77.50
24260;DHT22;12384;48.112;18.418;2023-01-24T01:30:58;5.30;77.50
24260;DHT22;12384;48.112;18.418;2023-01-24T01:33:28;5.30;77.60
24260;DHT22;12384;48.112;18.418;2023-01-24T01:35:56;5.30;77.60
24260;DHT22;12384;48.112;18.418;2023-01-24T01:38:25;5.30;77.70
24260;DHT22;12384;48.112;18.418;2023-01-24T01:40:55;5.20;77.60
24260;DHT22;12384;48.112;18.418;2023-01-24T01:43:25;5.20;77.50
24260;DHT22;12384;48.112;18.418;2023-01-24T01:45:54;5.20;77.50
24260;DHT22;12384;48.112;18.418;2023-01-24T01:48:34;5.20;77.60
24260;DHT22;12384;48.112;18.418;2023-01-24T01:51:10;5.20;77.80
24260;DHT22;12384;48.112;18.418;2023-01-24T01:53:43;5.20;78.10
24260;DHT22;12384;48.112;18.418;2023-01-24T01:56:20;5.20;78.40
24260;DHT22;12384;48.112;18.418;2023-01-24T01:58:49;5.10;78.60
24260;DHT22;12384;48.112;18.418;2023-01-24T02:01:18;5.20;78.90
24260;DHT22;12384;48.112;18.418;2023-01-24T02:03:51;5.20;79.20
24260;DHT22;12384;48.112;18.418;2023-01-24T02:06:48;5.20;79.30
24260;DHT22;12384;48.112;18.418;2023-01-24T02:09:21;5.20;79.50
24260;DHT22;12384;48.112;18.418;2023-01-24T02:11:52;5.20;79.50
24260;DHT22;12384;48.112;18.418;2023-01-24T02:14:23;5.20;79.60
24260;DHT22;12384;48.112;18.418;2023-01-24T02:17:11;5.20;79.60
24260;DHT22;12384;48.112;18.418;2023-01-24T02:19:50;5.20;79.60
24260;DHT22;12384;48.112;18.418;2023-01-24T02:22:27;5.20;79.50
24260;DHT22;12384;48.112;18.418;2023-01-24T02:25:04;5.20;79.40
24260;DHT22;12384;48.112;18.418;2023-01-24T02:27:35;5.10;79.10
24260;DHT22;12384;48.112;18.418;2023-01-24T02:30:04;5.10;79.10
24260;DHT22;12384;48.112;18.418;2023-01-24T02:32:33;5.10;79.10
24260;DHT22;12384;48.112;18.418;2023-01-24T02:35:02;5.10;79.10
24260;DHT22;12384;48.112;18.418;2023-01-24T02:37:32;5.10;79.30
24260;DHT22;12384;48.112;18.418;2023-01-24T02:40:04;5.10;79.30
24260;DHT22;12384;48.112;18.418;2023-01-24T02:42:38;5.00;79.20
24260;DHT22;12384;48.112;18.418;2023-01-24T02:45:10;5.00;79.20
24260;DHT22;12384;48.112;18.418;2023-01-24T02:47:45;5.00;79.30
24260;DHT22;12384;48.112;18.418;2023-01-24T02:50:16;4.90;79.30
24260;DHT22;12384;48.112;18.418;2023-01-24T02:52:46;4.90;79.40
24260;DHT22;12384;48.112;18.418;2023-01-24T02:55:32;4.90;79.60
24260;DHT22;12384;48.112;18.418;2023-01-24T02:58:02;4.90;79.80
24260;DHT22;12384;48.112;18.418;2023-01-24T03:00:35;4.90;80.00
24260;DHT22;12384;48.112;18.418;2023-01-24T03:03:06;4.90;80.20
24260;DHT22;12384;48.112;18.418;2023-01-24T03:05:35;4.90;80.50
24260;DHT22;12384;48.112;18.418;2023-01-24T03:08:32;4.90;80.80
24260;DHT22;12384;48.112;18.418;2023-01-24T03:11:05;4.90;81.20
24260;DHT22;12384;48.112;18.418;2023-01-24T03:13:35;4.90;81.80
24260;DHT22;12384;48.112;18.418;2023-01-24T03:16:22;4.90;82.30
24260;DHT22;12384;48.112;18.418;2023-01-24T03:19:08;4.90;82.70
24260;DHT22;12384;48.112;18.418;2023-01-24T03:21:55;4.90;82.80
24260;DHT22;12384;48.112;18.418;2023-01-24T03:24:41;4.90;83.00
24260;DHT22;12384;48.112;18.418;2023-01-24T03:27:27;4.90;83.30
24260;DHT22;12384;48.112;18.418;2023-01-24T03:30:19;4.90;83.70
24260;DHT22;12384;48.112;18.418;2023-01-24T03:33:06;4.90;83.90
24260;DHT22;12384;48.112;18.418;2023-01-24T03:35:52;5.00;84.30
24260;DHT22;12384;48.112;18.418;2023-01-24T03:38:30;5.00;84.60
24260;DHT22;12384;48.112;18.418;2023-01-24T03:41:17;5.00;84.60
24260;DHT22;12384;48.112;18.418;2023-01-24T03:43:47;5.00;84.30
24260;DHT22;12384;48.112;18.418;2023-01-24T03:46:17;5.00;83.90
24260;DHT22;12384;48.112;18.418;2023-01-24T03:48:50;5.00;83.80
24260;DHT22;12384;48.112;18.418;2023-01-24T03:51:26;5.00;83.70
24260;DHT22;12384;48.112;18.418;2023-01-24T03:54:11;5.00;84.30
24260;DHT22;12384;48.112;18.418;2023-01-24T03:56:55;5.00;83.50
24260;DHT22;12384;48.112;18.418;2023-01-24T03:59:24;5.00;83.40
24260;DHT22;12384;48.112;18.418;2023-01-24T04:01:54;5.00;83.40
24260;DHT22;12384;48.112;18.418;2023-01-24T04:04:30;5.00;83.50
24260;DHT22;12384;48.112;18.418;2023-01-24T04:07:19;5.00;83.60
24260;DHT22;12384;48.112;18.418;2023-01-24T04:10:00;5.00;83.70
24260;DHT22;12384;48.112;18.418;2023-01-24T04:12:35;5.00;83.90
24260;DHT22;12384;48.112;18.418;2023-01-24T04:15:04;5.00;83.90
24260;DHT22;12384;48.112;18.418;2023-01-24T04:17:35;5.00;83.90
24260;DHT22;12384;48.112;18.418;2023-01-24T04:20:07;5.10;84.30
24260;DHT22;12384;48.112;18.418;2023-01-24T04:22:36;5.10;84.40
24260;DHT22;12384;48.112;18.418;2023-01-24T04:25:06;5.10;84.50
24260;DHT22;12384;48.112;18.418;2023-01-24T04:27:35;5.10;84.50
24260;DHT22;12384;48.112;18.418;2023-01-24T04:30:10;5.10;84.40
24260;DHT22;12384;48.112;18.418;2023-01-24T04:32:42;5.10;84.30
24260;DHT22;12384;48.112;18.418;2023-01-24T04:35:23;5.10;83.80
24260;DHT22;12384;48.112;18.418;2023-01-24T04:38:00;5.10;83.20
24260;DHT22;12384;48.112;18.418;2023-01-24T04:40:38;5.00;82.70
24260;DHT22;12384;48.112;18.418;2023-01-24T04:43:08;5.00;82.50
24260;DHT22;12384;48.112;18.418;2023-01-24T04:45:38;4.90;82.10
24260;DHT22;12384;48.112;18.418;2023-01-24T04:48:13;4.90;81.90
24260;DHT22;12384;48.112;18.418;2023-01-24T04:50:41;4.90;81.80
24260;DHT22;12384;48.112;18.418;2023-01-24T04:53:10;4.80;81.70
24260;DHT22;12384;48.112;18.418;2023-01-24T04:55:39;4.80;81.60
24260;DHT22;12384;48.112;18.418;2023-01-24T04:58:08;4.70;81.50
24260;DHT22;12384;48.112;18.418;2023-01-24T05:00:36;4.70;81.30
24260;DHT22;12384;48.112;18.418;2023-01-24T05:03:07;4.60;81.20
24260;DHT22;12384;48.112;18.418;2023-01-24T05:05:37;4.60;81.10
24260;DHT22;12384;48.112;18.418;2023-01-24T05:08:05;4.50;80.80
24260;DHT22;12384;48.112;18.418;2023-01-24T05:10:34;4.40;80.70
24260;DHT22;12384;48.112;18.418;2023-01-24T05:13:03;4.40;80.60
24260;DHT22;12384;48.112;18.418;2023-01-24T05:15:32;4.30;80.60
24260;DHT22;12384;48.112;18.418;2023-01-24T05:18:02;4.30;80.60
24260;DHT22;12384;48.112;18.418;2023-01-24T05:20:32;4.20;80.60
24260;DHT22;12384;48.112;18.418;2023-01-24T05:23:03;4.20;80.70
24260;DHT22;12384;48.112;18.418;2023-01-24T05:25:39;4.10;80.80
24260;DHT22;12384;48.112;18.418;2023-01-24T05:28:08;4.10;80.90
24260;DHT22;12384;48.112;18.418;2023-01-24T05:30:41;4.00;80.90
24260;DHT22;12384;48.112;18.418;2023-01-24T05:33:21;4.00;81.20
24260;DHT22;12384;48.112;18.418;2023-01-24T05:35:56;3.90;81.50
24260;DHT22;12384;48.112;18.418;2023-01-24T05:38:27;3.90;81.80
24260;DHT22;12384;48.112;18.418;2023-01-24T05:40:59;3.90;82.30
24260;DHT22;12384;48.112;18.418;2023-01-24T05:43:28;3.80;82.40
24260;DHT22;12384;48.112;18.418;2023-01-24T05:45:58;3.80;82.50
24260;DHT22;12384;48.112;18.418;2023-01-24T05:48:32;3.70;82.60
24260;DHT22;12384;48.112;18.418;2023-01-24T05:51:03;3.70;82.90
24260;DHT22;12384;48.112;18.418;2023-01-24T05:53:35;3.70;83.00
24260;DHT22;12384;48.112;18.418;2023-01-24T05:56:06;3.60;83.10
24260;DHT22;12384;48.112;18.418;2023-01-24T05:58:36;3.60;83.20
24260;DHT22;12384;48.112;18.418;2023-01-24T06:01:11;3.60;83.50
24260;DHT22;12384;48.112;18.418;2023-01-24T06:03:44;3.50;83.90
24260;DHT22;12384;48.112;18.418;2023-01-24T06:06:15;3.50;84.40
24260;DHT22;12384;48.112;18.418;2023-01-24T06:08:45;3.50;85.00
24260;DHT22;12384;48.112;18.418;2023-01-24T06:11:16;3.50;85.50
24260;DHT22;12384;48.112;18.418;2023-01-24T06:13:45;3.40;85.80
24260;DHT22;12384;48.112;18.418;2023-01-24T06:16:16;3.40;86.10
24260;DHT22;12384;48.112;18.418;2023-01-24T06:18:46;3.40;86.50
24260;DHT22;12384;48.112;18.418;2023-01-24T06:21:27;3.40;86.90
24260;DHT22;12384;48.112;18.418;2023-01-24T06:24:04;3.40;87.30
24260;DHT22;12384;48.112;18.418;2023-01-24T06:26:48;3.40;87.60
24260;DHT22;12384;48.112;18.418;2023-01-24T06:29:18;3.40;88.00
24260;DHT22;12384;48.112;18.418;2023-01-24T06:31:57;3.40;88.40
24260;DHT22;12384;48.112;18.418;2023-01-24T06:34:42;3.40;88.70
24260;DHT22;12384;48.112;18.418;2023-01-24T06:37:19;3.40;89.10
24260;DHT22;12384;48.112;18.418;2023-01-24T06:39:52;3.40;89.50
24260;DHT22;12384;48.112;18.418;2023-01-24T06:42:22;3.40;89.80
24260;DHT22;12384;48.112;18.418;2023-01-24T06:44:53;3.40;90.00
24260;DHT22;12384;48.112;18.418;2023-01-24T06:47:21;3.40;90.10
24260;DHT22;12384;48.112;18.418;2023-01-24T06:49:52;3.40;90.20
24260;DHT22;12384;48.112;18.418;2023-01-24T06:52:20;3.40;90.40
24260;DHT22;12384;48.112;18.418;2023-01-24T06:54:50;3.40;90.70
24260;DHT22;12384;48.112;18.418;2023-01-24T06:57:18;3.40;91.10
24260;DHT22;12384;48.112;18.418;2023-01-24T06:59:47;3.40;91.60
24260;DHT22;12384;48.112;18.418;2023-01-24T07:02:15;3.50;92.00
24260;DHT22;12384;48.112;18.418;2023-01-24T07:04:43;3.50;92.30
24260;DHT22;12384;48.112;18.418;2023-01-24T07:07:12;3.60;92.60
24260;DHT22;12384;48.112;18.418;2023-01-24T07:09:40;3.60;92.90
24260;DHT22;12384;48.112;18.418;2023-01-24T07:12:10;3.70;93.20
24260;DHT22;12384;48.112;18.418;2023-01-24T07:14:38;3.80;93.50
24260;DHT22;12384;48.112;18.418;2023-01-24T07:17:07;3.90;93.80
24260;DHT22;12384;48.112;18.418;2023-01-24T07:19:36;4.00;93.90
24260;DHT22;12384;48.112;18.418;2023-01-24T07:22:08;4.10;94.10
24260;DHT22;12384;48.112;18.418;2023-01-24T07:24:38;4.10;94.10
24260;DHT22;12384;48.112;18.418;2023-01-24T07:27:06;4.20;94.30
24260;DHT22;12384;48.112;18.418;2023-01-24T07:29:36;4.30;94.40
24260;DHT22;12384;48.112;18.418;2023-01-24T07:32:05;4.40;94.60
24260;DHT22;12384;48.112;18.418;2023-01-24T07:34:33;4.50;94.70
24260;DHT22;12384;48.112;18.418;2023-01-24T07:37:02;4.60;94.90
24260;DHT22;12384;48.112;18.418;2023-01-24T07:39:30;4.70;95.10
24260;DHT22;12384;48.112;18.418;2023-01-24T07:41:59;4.80;95.30
24260;DHT22;12384;48.112;18.418;2023-01-24T07:44:27;5.00;95.50
24260;DHT22;12384;48.112;18.418;2023-01-24T07:46:57;5.10;95.60
24260;DHT22;12384;48.112;18.418;2023-01-24T07:49:25;5.30;95.80
24260;DHT22;12384;48.112;18.418;2023-01-24T07:51:54;5.40;95.80
24260;DHT22;12384;48.112;18.418;2023-01-24T07:54:22;5.50;95.50
24260;DHT22;12384;48.112;18.418;2023-01-24T07:56:51;5.60;95.20
24260;DHT22;12384;48.112;18.418;2023-01-24T07:59:19;5.70;94.90
24260;DHT22;12384;48.112;18.418;2023-01-24T08:02:04;5.80;94.80
24260;DHT22;12384;48.112;18.418;2023-01-24T08:04:32;5.90;95.00
24260;DHT22;12384;48.112;18.418;2023-01-24T08:07:01;6.10;96.20
24260;DHT22;12384;48.112;18.418;2023-01-24T08:09:46;6.40;98.00
24260;DHT22;12384;48.112;18.418;2023-01-24T08:12:17;6.80;99.90
24260;DHT22;12384;48.112;18.418;2023-01-24T08:14:45;7.50;99.90
24260;DHT22;12384;48.112;18.418;2023-01-24T08:17:16;8.10;99.90
24260;DHT22;12384;48.112;18.418;2023-01-24T08:19:44;8.80;99.90
24260;DHT22;12384;48.112;18.418;2023-01-24T08:22:23;9.40;99.90
24260;DHT22;12384;48.112;18.418;2023-01-24T08:24:51;9.80;99.90
24260;DHT22;12384;48.112;18.418;2023-01-24T08:27:20;10.10;99.90
24260;DHT22;12384;48.112;18.418;2023-01-24T08:29:48;10.30;97.60
24260;DHT22;12384;48.112;18.418;2023-01-24T08:32:18;10.50;95.60
24260;DHT22;12384;48.112;18.418;2023-01-24T08:34:47;10.60;93.60
24260;DHT22;12384;48.112;18.418;2023-01-24T08:37:15;10.80;92.60
24260;DHT22;12384;48.112;18.418;2023-01-24T08:39:44;11.00;92.00
24260;DHT22;12384;48.112;18.418;2023-01-24T08:42:12;11.30;91.40
24260;DHT22;12384;48.112;18.418;2023-01-24T08:44:40;11.60;90.70
24260;DHT22;12384;48.112;18.418;2023-01-24T08:47:09;11.90;89.70
24260;DHT22;12384;48.112;18.418;2023-01-24T08:49:39;12.30;88.20
24260;DHT22;12384;48.112;18.418;2023-01-24T08:52:08;12.60;83.80
24260;DHT22;12384;48.112;18.418;2023-01-24T08:54:36;12.80;79.40
24260;DHT22;12384;48.112;18.418;2023-01-24T08:57:06;13.00;76.20
24260;DHT22;12384;48.112;18.418;2023-01-24T08:59:35;13.20;72.80
24260;DHT22;12384;48.112;18.418;2023-01-24T09:02:04;13.40;69.90
24260;DHT22;12384;48.112;18.418;2023-01-24T09:04:33;13.60;68.50
24260;DHT22;12384;48.112;18.418;2023-01-24T09:07:02;14.00;67.30
24260;DHT22;12384;48.112;18.418;2023-01-24T09:09:31;14.30;66.00
24260;DHT22;12384;48.112;18.418;2023-01-24T09:11:59;14.70;64.70
24260;DHT22;12384;48.112;18.418;2023-01-24T09:14:28;15.00;62.60
24260;DHT22;12384;48.112;18.418;2023-01-24T09:16:56;15.20;60.80
24260;DHT22;12384;48.112;18.418;2023-01-24T09:19:25;15.30;59.90
24260;DHT22;12384;48.112;18.418;2023-01-24T09:21:53;15.30;59.00
24260;DHT22;12384;48.112;18.418;2023-01-24T09:24:25;15.20;58.00
24260;DHT22;12384;48.112;18.418;2023-01-24T09:26:53;15.10;57.70
24260;DHT22;12384;48.112;18.418;2023-01-24T09:29:22;15.00;57.40
24260;DHT22;12384;48.112;18.418;2023-01-24T09:31:50;14.90;56.90
24260;DHT22;12384;48.112;18.418;2023-01-24T09:34:22;14.70;56.50
24260;DHT22;12384;48.112;18.418;2023-01-24T09:36:50;14.50;54.70
24260;DHT22;12384;48.112;18.418;2023-01-24T09:39:19;14.30;54.80
24260;DHT22;12384;48.112;18.418;2023-01-24T09:41:57;14.10;55.10
24260;DHT22;12384;48.112;18.418;2023-01-24T09:44:46;13.90;55.30
24260;DHT22;12384;48.112;18.418;2023-01-24T09:47:21;13.60;55.30
24260;DHT22;12384;48.112;18.418;2023-01-24T09:49:54;13.40;55.60
24260;DHT22;12384;48.112;18.418;2023-01-24T09:52:33;13.20;55.70
24260;DHT22;12384;48.112;18.418;2023-01-24T09:55:08;13.10;55.90
24260;DHT22;12384;48.112;18.418;2023-01-24T09:57:48;13.00;56.00
24260;DHT22;12384;48.112;18.418;2023-01-24T10:00:22;12.90;56.20
24260;DHT22;12384;48.112;18.418;2023-01-24T10:02:53;13.00;56.40
24260;DHT22;12384;48.112;18.418;2023-01-24T10:05:27;13.00;56.20
24260;DHT22;12384;48.112;18.418;2023-01-24T10:11:06;13.10;55.70
24260;DHT22;12384;48.112;18.418;2023-01-24T10:14:08;13.10;55.50
24260;DHT22;12384;48.112;18.418;2023-01-24T10:17:01;13.10;55.30
24260;DHT22;12384;48.112;18.418;2023-01-24T10:19:53;13.10;54.90
24260;DHT22;12384;48.112;18.418;2023-01-24T10:22:37;13.20;54.90
24260;DHT22;12384;48.112;18.418;2023-01-24T10:25:14;13.20;54.90
24260;DHT22;12384;48.112;18.418;2023-01-24T10:27:47;13.20;54.70
24260;DHT22;12384;48.112;18.418;2023-01-24T10:30:21;13.30;54.70
24260;DHT22;12384;48.112;18.418;2023-01-24T10:32:54;13.50;55.00
24260;DHT22;12384;48.112;18.418;2023-01-24T10:35:30;13.80;55.40
24260;DHT22;12384;48.112;18.418;2023-01-24T10:38:04;14.40;55.10
24260;DHT22;12384;48.112;18.418;2023-01-24T10:40:48;14.80;53.80
24260;DHT22;12384;48.112;18.418;2023-01-24T10:43:17;15.20;51.90
24260;DHT22;12384;48.112;18.418;2023-01-24T10:46:01;15.40;53.00
24260;DHT22;12384;48.112;18.418;2023-01-24T10:48:39;15.70;52.60
24260;DHT22;12384;48.112;18.418;2023-01-24T10:51:14;16.00;51.40
24260;DHT22;12384;48.112;18.418;2023-01-24T10:53:44;16.40;52.00
24260;DHT22;12384;48.112;18.418;2023-01-24T10:56:14;16.90;50.80
24260;DHT22;12384;48.112;18.418;2023-01-24T10:58:44;17.30;49.80
24260;DHT22;12384;48.112;18.418;2023-01-24T11:01:32;17.60;50.30
24260;DHT22;12384;48.112;18.418;2023-01-24T11:04:13;18.20;49.60
24260;DHT22;12384;48.112;18.418;2023-01-24T11:06:45;18.70;49.80
24260;DHT22;12384;48.112;18.418;2023-01-24T11:09:16;19.10;49.40
24260;DHT22;12384;48.112;18.418;2023-01-24T11:11:50;19.60;48.90
24260;DHT22;12384;48.112;18.418;2023-01-24T11:14:21;20.10;48.10
24260;DHT22;12384;48.112;18.418;2023-01-24T11:16:53;20.60;47.40
24260;DHT22;12384;48.112;18.418;2023-01-24T11:19:27;21.00;46.70
24260;DHT22;12384;48.112;18.418;2023-01-24T11:21:58;21.40;45.70
24260;DHT22;12384;48.112;18.418;2023-01-24T11:24:28;21.60;44.60
24260;DHT22;12384;48.112;18.418;2023-01-24T11:27:02;21.80;43.70
24260;DHT22;12384;48.112;18.418;2023-01-24T11:29:31;21.90;42.90
24260;DHT22;12384;48.112;18.418;2023-01-24T11:32:23;22.10;42.90
24260;DHT22;12384;48.112;18.418;2023-01-24T11:34:58;22.40;41.40
24260;DHT22;12384;48.112;18.418;2023-01-24T11:37:39;22.60;41.30
24260;DHT22;12384;48.112;18.418;2023-01-24T11:40:34;22.80;40.90
24260;DHT22;12384;48.112;18.418;2023-01-24T11:43:22;22.90;40.30
24260;DHT22;12384;48.112;18.418;2023-01-24T11:46:15;22.90;40.20
24260;DHT22;12384;48.112;18.418;2023-01-24T11:48:52;22.80;38.90
24260;DHT22;12384;48.112;18.418;2023-01-24T11:51:33;22.40;39.20
24260;DHT22;12384;48.112;18.418;2023-01-24T11:54:23;22.00;39.10
24260;DHT22;12384;48.112;18.418;2023-01-24T11:57:01;21.70;38.80
24260;DHT22;12384;48.112;18.418;2023-01-24T11:59:40;21.40;39.70
24260;DHT22;12384;48.112;18.418;2023-01-24T12:02:32;21.40;39.90
24260;DHT22;12384;48.112;18.418;2023-01-24T12:05:25;21.30;39.70
24260;DHT22;12384;48.112;18.418;2023-01-24T12:08:05;21.20;39.40
24260;DHT22;12384;48.112;18.418;2023-01-24T12:10:47;21.00;40.00
24260;DHT22;12384;48.112;18.418;2023-01-24T12:13:44;20.90;39.90
24260;DHT22;12384;48.112;18.418;2023-01-24T12:16:21;20.70;39.90
24260;DHT22;12384;48.112;18.418;2023-01-24T12:19:04;20.60;40.00
24260;DHT22;12384;48.112;18.418;2023-01-24T12:21:38;20.60;40.30
24260;DHT22;12384;48.112;18.418;2023-01-24T12:24:14;20.50;40.20
24260;DHT22;12384;48.112;18.418;2023-01-24T12:26:50;20.40;40.30
24260;DHT22;12384;48.112;18.418;2023-01-24T12:29:22;20.40;40.40
24260;DHT22;12384;48.112;18.418;2023-01-24T12:31:56;20.40;40.40
24260;DHT22;12384;48.112;18.418;2023-01-24T12:34:43;20.40;40.30
24260;DHT22;12384;48.112;18.418;2023-01-24T12:37:23;20.40;40.20
24260;DHT22;12384;48.112;18.418;2023-01-24T12:40:00;20.30;40.20
24260;DHT22;12384;48.112;18.418;2023-01-24T12:42:46;20.30;40.40
24260;DHT22;12384;48.112;18.418;2023-01-24T12:45:22;20.20;40.20
24260;DHT22;12384;48.112;18.418;2023-01-24T12:47:57;20.20;40.40
24260;DHT22;12384;48.112;18.418;2023-01-24T12:50:34;20.10;40.10
24260;DHT22;12384;48.112;18.418;2023-01-24T12:53:13;19.80;40.00
24260;DHT22;12384;48.112;18.418;2023-01-24T12:55:50;19.50;39.80
24260;DHT22;12384;48.112;18.418;2023-01-24T12:58:24;19.10;39.90
24260;DHT22;12384;48.112;18.418;2023-01-24T13:01:06;18.80;40.40
24260;DHT22;12384;48.112;18.418;2023-01-24T13:03:53;18.60;40.70
24260;DHT22;12384;48.112;18.418;2023-01-24T13:06:32;18.40;40.90
24260;DHT22;12384;48.112;18.418;2023-01-24T13:09:13;18.20;41.10
24260;DHT22;12384;48.112;18.418;2023-01-24T13:11:46;18.00;41.40
24260;DHT22;12384;48.112;18.418;2023-01-24T13:14:20;17.90;41.60
24260;DHT22;12384;48.112;18.418;2023-01-24T13:17:11;17.70;41.60
24260;DHT22;12384;48.112;18.418;2023-01-24T13:20:11;17.50;41.50
24260;DHT22;12384;48.112;18.418;2023-01-24T13:23:00;17.20;41.40
24260;DHT22;12384;48.112;18.418;2023-01-24T13:25:45;16.70;41.50
24260;DHT22;12384;48.112;18.418;2023-01-24T13:28:22;16.20;41.50
24260;DHT22;12384;48.112;18.418;2023-01-24T13:31:06;15.80;41.90
24260;DHT22;12384;48.112;18.418;2023-01-24T13:33:38;15.30;42.50
24260;DHT22;12384;48.112;18.418;2023-01-24T13:36:08;14.90;43.60
24260;DHT22;12384;48.112;18.418;2023-01-24T13:38:40;14.50;43.40
24260;DHT22;12384;48.112;18.418;2023-01-24T13:41:16;14.20;43.70
24260;DHT22;12384;48.112;18.418;2023-01-24T13:43:59;13.80;43.90
24260;DHT22;12384;48.112;18.418;2023-01-24T13:47:02;13.40;44.10
24260;DHT22;12384;48.112;18.418;2023-01-24T13:49:44;13.00;44.30
24260;DHT22;12384;48.112;18.418;2023-01-24T13:52:47;12.60;44.50
24260;DHT22;12384;48.112;18.418;2023-01-24T13:58:29;11.90;45.30
24260;DHT22;12384;48.112;18.418;2023-01-24T14:00:59;11.60;46.40
24260;DHT22;12384;48.112;18.418;2023-01-24T14:03:32;11.50;48.70
24260;DHT22;12384;48.112;18.418;2023-01-24T14:06:12;11.60;50.20
24260;DHT22;12384;48.112;18.418;2023-01-24T14:08:52;12.00;50.50
24260;DHT22;12384;48.112;18.418;2023-01-24T14:11:29;12.50;50.30
24260;DHT22;12384;48.112;18.418;2023-01-24T14:17:03;13.60;48.80
24260;DHT22;12384;48.112;18.418;2023-01-24T14:19:36;14.10;48.40
24260;DHT22;12384;48.112;18.418;2023-01-24T14:22:20;14.30;48.00
24260;DHT22;12384;48.112;18.418;2023-01-24T14:24:53;14.40;47.60
24260;DHT22;12384;48.112;18.418;2023-01-24T14:27:26;14.40;47.10
24260;DHT22;12384;48.112;18.418;2023-01-24T14:30:03;14.20;46.80
24260;DHT22;12384;48.112;18.418;2023-01-24T14:32:45;14.00;46.70
24260;DHT22;12384;48.112;18.418;2023-01-24T14:35:19;13.80;46.70
24260;DHT22;12384;48.112;18.418;2023-01-24T14:37:50;13.50;46.70
24260;DHT22;12384;48.112;18.418;2023-01-24T14:40:21;13.20;46.70
24260;DHT22;12384;48.112;18.418;2023-01-24T14:42:58;12.90;46.50
24260;DHT22;12384;48.112;18.418;2023-01-24T14:45:30;12.60;46.50
24260;DHT22;12384;48.112;18.418;2023-01-24T14:48:01;12.20;46.40
24260;DHT22;12384;48.112;18.418;2023-01-24T14:50:35;11.90;46.50
24260;DHT22;12384;48.112;18.418;2023-01-24T14:53:22;11.50;46.60
24260;DHT22;12384;48.112;18.418;2023-01-24T14:55:52;11.20;46.70
24260;DHT22;12384;48.112;18.418;2023-01-24T14:58:23;10.90;46.90
24260;DHT22;12384;48.112;18.418;2023-01-24T15:00:54;10.60;47.20
24260;DHT22;12384;48.112;18.418;2023-01-24T15:03:24;10.30;47.30
24260;DHT22;12384;48.112;18.418;2023-01-24T15:05:56;10.00;47.70
24260;DHT22;12384;48.112;18.418;2023-01-24T15:08:25;9.80;48.80
24260;DHT22;12384;48.112;18.418;2023-01-24T15:11:00;9.50;49.10
24260;DHT22;12384;48.112;18.418;2023-01-24T15:13:32;9.30;49.40
24260;DHT22;12384;48.112;18.418;2023-01-24T15:16:04;9.10;49.70
24260;DHT22;12384;48.112;18.418;2023-01-24T15:18:42;8.80;50.00
24260;DHT22;12384;48.112;18.418;2023-01-24T15:21:28;8.60;50.30
24260;DHT22;12384;48.112;18.418;2023-01-24T15:23:58;8.50;51.20
24260;DHT22;12384;48.112;18.418;2023-01-24T15:26:39;8.30;50.90
24260;DHT22;12384;48.112;18.418;2023-01-24T15:29:41;8.10;51.10
24260;DHT22;12384;48.112;18.418;2023-01-24T15:32:45;7.90;51.30
24260;DHT22;12384;48.112;18.418;2023-01-24T15:35:33;7.70;51.60
24260;DHT22;12384;48.112;18.418;2023-01-24T15:38:13;7.50;51.80
24260;DHT22;12384;48.112;18.418;2023-01-24T15:40:55;7.40;51.90
24260;DHT22;12384;48.112;18.418;2023-01-24T15:43:31;7.20;52.10
24260;DHT22;12384;48.112;18.418;2023-01-24T15:46:17;7.10;52.40
24260;DHT22;12384;48.112;18.418;2023-01-24T15:52:20;6.80;52.70
24260;DHT22;12384;48.112;18.418;2023-01-24T15:54:53;6.70;53.00
24260;DHT22;12384;48.112;18.418;2023-01-24T15:57:27;6.60;53.20
24260;DHT22;12384;48.112;18.418;2023-01-24T15:59:59;6.40;53.30
24260;DHT22;12384;48.112;18.418;2023-01-24T16:02:35;6.30;53.40
24260;DHT22;12384;48.112;18.418;2023-01-24T16:05:11;6.30;53.70
24260;DHT22;12384;48.112;18.418;2023-01-24T16:07:40;6.20;53.90
24260;DHT22;12384;48.112;18.418;2023-01-24T16:10:12;6.10;53.90
24260;DHT22;12384;48.112;18.418;2023-01-24T16:12:41;6.00;54.10
24260;DHT22;12384;48.112;18.418;2023-01-24T16:15:15;5.90;54.30
24260;DHT22;12384;48.112;18.418;2023-01-24T16:17:44;5.80;54.90
24260;DHT22;12384;48.112;18.418;2023-01-24T16:20:21;5.80;54.80
24260;DHT22;12384;48.112;18.418;2023-01-24T16:22:50;5.70;54.90